Time;durP1;ratioP1;P1;durP2;ratioP2;P2;SDS_P1;SDS_P2;PMS_P1;PMS_P2;Temp;Humidity;BMP_temperature;BMP_pressure;BME280_temperature;BME280_humidity;BME280_pressure;Samples;Min_cycle;Max_cycle;Signal;HPM_P1;HPM_P2
2023/04/03 00:00:07;;;;;;;;;57.80;49.20;;;;;;;;5046481;29;8792;-67
2023/04/03 00:02:40;;;;;;;;;54.60;45.40;;;;;;;;5029006;29;8820;-67
2023/04/03 00:05:11;;;;;;;;;59.00;48.20;;;;;;;;5029758;29;8789;-67
2023/04/03 00:07:41;;;;;;;;;49.25;40.75;;;;;;;;5014470;29;8796;-67
2023/04/03 00:10:13;;;;;;;;;38.00;36.25;;;;;;;;5046904;29;8864;-67
2023/04/03 00:12:44;;;;;;;;;33.40;31.80;;;;;;;;5029859;29;9538;-67
2023/04/03 00:15:15;;;;;;;;;38.75;38.00;;;;;;;;5046443;29;8784;-67
2023/04/03 00:17:46;;;;;;;;;44.60;41.00;;;;;;;;5046128;29;8879;-67
2023/04/03 00:20:17;;;;;;;;;58.25;49.25;;;;;;;;5030158;29;8773;-67
2023/04/03 00:22:48;;;;;;;;;64.60;55.00;;;;;;;;5029607;29;9014;-67
2023/04/03 00:25:19;;;;;;;;;34.80;33.80;;;;;;;;5029484;29;8800;-67
2023/04/03 00:27:50;;;;;;;;;43.80;41.20;;;;;;;;5029449;29;8954;-67
2023/04/03 00:30:22;;;;;;;;;48.40;41.60;;;;;;;;5029446;29;8807;-67
2023/04/03 00:32:53;;;;;;;;;41.60;39.00;;;;;;;;5045981;29;9520;-67
2023/04/03 00:35:42;;;;;;;;;18.60;18.60;;;;;;;;5059622;29;8865;-67
2023/04/03 00:38:13;;;;;;;;;34.20;32.40;;;;;;;;5033048;29;8798;-67
2023/04/03 00:40:46;;;;;;;;;31.60;31.20;;;;;;;;5032852;29;8844;-67
2023/04/03 00:43:17;;;;;;;;;36.80;36.20;;;;;;;;5048663;29;8786;-67
2023/04/03 00:45:52;;;;;;;;;36.00;35.40;;;;;;;;5064907;29;8778;-67
2023/04/03 00:48:31;;;;;;;;;39.80;38.00;;;;;;;;5048561;29;8832;-67
2023/04/03 00:51:03;;;;;;;;;34.20;33.80;;;;;;;;5065734;29;8846;-67
2023/04/03 00:53:38;;;;;;;;;31.20;31.00;;;;;;;;5085111;29;8842;-67
2023/04/03 00:56:12;;;;;;;;;38.40;38.20;;;;;;;;5052297;29;8839;-67
2023/04/03 00:58:46;;;;;;;;;35.20;33.80;;;;;;;;5067925;29;8806;-67
2023/04/03 01:01:36;;;;;;;;;35.40;35.00;;;;;;;;5067729;29;8802;-67
2023/04/03 01:04:26;;;;;;;;;33.20;32.80;;;;;;;;5084537;29;8809;-67
2023/04/03 01:06:59;;;;;;;;;32.20;32.20;;;;;;;;5067993;29;8892;-67
2023/04/03 01:09:31;;;;;;;;;36.20;35.20;;;;;;;;5067615;29;8778;-67
2023/04/03 01:12:16;;;;;;;;;33.60;33.40;;;;;;;;5084378;29;8806;-67
2023/04/03 01:15:07;;;;;;;;;39.20;36.00;;;;;;;;5087385;29;9524;-67
2023/04/03 01:17:40;;;;;;;;;43.60;39.60;;;;;;;;5071561;29;8905;-67
2023/04/03 01:20:31;;;;;;;;;32.00;31.60;;;;;;;;5071164;29;8826;-67
2023/04/03 01:23:09;;;;;;;;;30.20;30.20;;;;;;;;5087842;29;8809;-67
2023/04/03 01:25:58;;;;;;;;;49.60;44.40;;;;;;;;5073836;29;8786;-67
2023/04/03 01:28:31;;;;;;;;;78.00;63.20;;;;;;;;5087905;29;8873;-67
2023/04/03 01:31:02;;;;;;;;;96.60;76.40;;;;;;;;5071650;29;8794;-67
2023/04/03 01:33:37;;;;;;;;;96.80;83.00;;;;;;;;5071103;29;8952;-67
2023/04/03 01:36:28;;;;;;;;;82.20;66.60;;;;;;;;5051927;29;8805;-67
2023/04/03 01:39:00;;;;;;;;;67.40;55.20;;;;;;;;5051284;29;8842;-67
2023/04/03 01:41:32;;;;;;;;;35.20;33.80;;;;;;;;5036267;29;8939;-67
2023/04/03 01:44:14;;;;;;;;;27.80;27.60;;;;;;;;5036430;29;8919;-67
2023/04/03 01:46:44;;;;;;;;;32.80;32.80;;;;;;;;5035972;29;8813;-67
2023/04/03 01:49:16;;;;;;;;;22.00;22.00;;;;;;;;5051643;29;8928;-67
2023/04/03 01:51:47;;;;;;;;;26.00;26.00;;;;;;;;5068808;29;8929;-67
2023/04/03 01:54:19;;;;;;;;;32.60;29.40;;;;;;;;5035786;29;8826;-67
2023/04/03 01:56:50;;;;;;;;;31.00;28.20;;;;;;;;5036304;29;8925;-67
2023/04/03 01:59:22;;;;;;;;;29.00;26.60;;;;;;;;5036314;29;8798;-67
2023/04/03 02:01:53;;;;;;;;;33.40;33.40;;;;;;;;5035972;29;9517;-67
2023/04/03 02:04:25;;;;;;;;;45.60;42.00;;;;;;;;5035762;29;8874;-67
2023/04/03 02:06:56;;;;;;;;;49.40;42.80;;;;;;;;5020495;29;8847;-67
2023/04/03 02:09:27;;;;;;;;;33.25;31.00;;;;;;;;5035874;29;8786;-67
2023/04/03 02:11:57;;;;;;;;;33.75;33.25;;;;;;;;5051081;29;11595;-67
2023/04/03 02:14:29;;;;;;;;;29.20;28.40;;;;;;;;5067884;29;10544;-67
2023/04/03 02:17:20;;;;;;;;;22.60;22.60;;;;;;;;5053766;29;8826;-67
2023/04/03 02:19:51;;;;;;;;;21.20;20.60;;;;;;;;5051080;29;8797;-67
2023/04/03 02:22:22;;;;;;;;;22.00;22.00;;;;;;;;5051104;29;8866;-67
2023/04/03 02:24:53;;;;;;;;;35.25;32.75;;;;;;;;5050278;29;8774;-67
2023/04/03 02:27:25;;;;;;;;;41.60;39.60;;;;;;;;5050315;29;8821;-67
2023/04/03 02:29:55;;;;;;;;;45.50;41.50;;;;;;;;5051023;29;8770;-67
2023/04/03 02:32:26;;;;;;;;;37.00;37.00;;;;;;;;5050852;29;8793;-67
2023/04/03 02:34:57;;;;;;;;;38.75;36.00;;;;;;;;5050449;29;11458;-67
2023/04/03 02:37:28;;;;;;;;;39.40;36.60;;;;;;;;5067493;29;8805;-67
2023/04/03 02:40:00;;;;;;;;;31.40;31.00;;;;;;;;5050981;29;8790;-67
2023/04/03 02:42:34;;;;;;;;;25.60;25.20;;;;;;;;5035481;29;8801;-67
2023/04/03 02:45:23;;;;;;;;;21.20;21.20;;;;;;;;5050766;29;8778;-67
2023/04/03 02:48:12;;;;;;;;;28.60;27.60;;;;;;;;5067803;29;8828;-67
2023/04/03 02:50:43;;;;;;;;;23.00;21.00;;;;;;;;5035312;29;8782;-67
2023/04/03 02:53:32;;;;;;;;;18.40;18.20;;;;;;;;5053197;29;8794;-68
2023/04/03 02:56:08;;;;;;;;;22.60;18.20;;;;;;;;5050219;29;8805;-67
2023/04/03 02:58:40;;;;;;;;;33.75;30.50;;;;;;;;5019463;29;8825;-67
2023/04/03 03:01:15;;;;;;;;;38.20;37.40;;;;;;;;5020541;29;8801;-67
2023/04/03 03:03:45;;;;;;;;;14.00;14.00;;;;;;;;5067270;29;8770;-67
2023/04/03 03:06:17;;;;;;;;;12.25;12.25;;;;;;;;5034621;29;8801;-67
2023/04/03 03:08:48;;;;;;;;;14.20;14.20;;;;;;;;5034724;29;9576;-67
2023/04/03 03:11:19;;;;;;;;;16.80;16.60;;;;;;;;5050165;29;8806;-67
2023/04/03 03:13:50;;;;;;;;;14.00;14.00;;;;;;;;5049956;29;8783;-67
2023/04/03 03:16:21;;;;;;;;;14.20;14.20;;;;;;;;5050038;29;8821;-68
2023/04/03 03:18:52;;;;;;;;;15.75;15.75;;;;;;;;5034350;29;8836;-67
2023/04/03 03:21:23;;;;;;;;;22.40;22.40;;;;;;;;5050254;29;8813;-67
2023/04/03 03:23:54;;;;;;;;;21.25;21.00;;;;;;;;5049868;29;8905;-67
2023/04/03 03:26:44;;;;;;;;;41.60;39.80;;;;;;;;5050080;29;11250;-67
2023/04/03 03:29:15;;;;;;;;;42.60;39.00;;;;;;;;5049550;29;8889;-68
2023/04/03 03:31:47;;;;;;;;;47.20;42.20;;;;;;;;5034409;29;8774;-68
2023/04/03 03:34:18;;;;;;;;;54.60;46.00;;;;;;;;5066478;29;8786;-68
2023/04/03 03:36:49;;;;;;;;;47.00;42.50;;;;;;;;5049746;29;8825;-68
2023/04/03 03:39:20;;;;;;;;;42.00;39.50;;;;;;;;5049495;29;11476;-68
2023/04/03 03:41:53;;;;;;;;;41.20;37.60;;;;;;;;5049544;29;8790;-68
2023/04/03 03:44:24;;;;;;;;;39.00;37.00;;;;;;;;5049498;29;8844;-67
2023/04/03 03:46:57;;;;;;;;;43.80;40.40;;;;;;;;5049266;29;8826;-67
2023/04/03 03:49:27;;;;;;;;;61.00;51.50;;;;;;;;5049567;29;8798;-67
2023/04/03 03:52:01;;;;;;;;;65.50;53.75;;;;;;;;5049243;29;8790;-68
2023/04/03 03:54:32;;;;;;;;;65.20;55.20;;;;;;;;5048812;29;8824;-74
2023/04/03 03:57:04;;;;;;;;;75.60;59.40;;;;;;;;5075961;29;8940;-76
2023/04/03 03:59:36;;;;;;;;;67.00;54.80;;;;;;;;5052999;29;9513;-76
2023/04/03 04:02:08;;;;;;;;;69.60;55.00;;;;;;;;5037083;29;8893;-76
2023/04/03 04:04:39;;;;;;;;;57.80;49.60;;;;;;;;5048417;29;8874;-76
2023/04/03 04:07:11;;;;;;;;;75.20;60.80;;;;;;;;5031975;29;8826;-77
2023/04/03 04:09:43;;;;;;;;;76.60;62.00;;;;;;;;5047462;29;8927;-77
2023/04/03 04:12:15;;;;;;;;;57.60;49.80;;;;;;;;5048702;29;8812;-76
2023/04/03 04:14:47;;;;;;;;;68.40;57.20;;;;;;;;5048260;29;8924;-76
2023/04/03 04:17:21;;;;;;;;;70.80;56.40;;;;;;;;5033616;29;8836;-76
2023/04/03 04:19:54;;;;;;;;;61.60;51.80;;;;;;;;5018253;29;8778;-75
2023/04/03 04:22:26;;;;;;;;;60.00;51.40;;;;;;;;5048835;29;8778;-75
2023/04/03 04:24:58;;;;;;;;;57.00;48.60;;;;;;;;5033505;29;8794;-75
2023/04/03 04:27:31;;;;;;;;;47.80;41.20;;;;;;;;5033431;29;8821;-75
2023/04/03 04:30:04;;;;;;;;;46.80;40.20;;;;;;;;5033030;29;8940;-75
2023/04/03 04:32:37;;;;;;;;;32.40;32.40;;;;;;;;5033914;29;9526;-75
2023/04/03 04:35:09;;;;;;;;;44.60;41.00;;;;;;;;5033293;29;8786;-75
2023/04/03 04:37:46;;;;;;;;;35.00;34.00;;;;;;;;5048486;29;8822;-75
2023/04/03 04:40:19;;;;;;;;;42.20;39.60;;;;;;;;5017837;29;8837;-75
2023/04/03 04:42:51;;;;;;;;;27.60;26.60;;;;;;;;5048831;29;8798;-75
2023/04/03 04:45:23;;;;;;;;;31.20;30.20;;;;;;;;5048801;29;8800;-75
2023/04/03 04:47:57;;;;;;;;;27.40;27.40;;;;;;;;5048454;29;8806;-75
2023/04/03 04:50:30;;;;;;;;;31.20;31.00;;;;;;;;5048909;29;9593;-75
2023/04/03 04:53:02;;;;;;;;;24.20;24.20;;;;;;;;5048414;29;8841;-75
2023/04/03 04:55:34;;;;;;;;;29.00;28.40;;;;;;;;5048526;29;8809;-76
2023/04/03 04:58:05;;;;;;;;;23.20;23.20;;;;;;;;5064731;29;8806;-76
2023/04/03 05:01:03;;;;;;;;;27.80;27.80;;;;;;;;5034460;29;8813;-76
2023/04/03 05:03:36;;;;;;;;;28.40;27.20;;;;;;;;5017630;29;9490;-68
2023/04/03 05:06:07;;;;;;;;;31.00;26.40;;;;;;;;5065154;29;8873;-68
2023/04/03 05:08:57;;;;;;;;;29.80;29.20;;;;;;;;5065094;29;8833;-68
2023/04/03 05:11:46;;;;;;;;;28.80;28.80;;;;;;;;5048027;29;8790;-68
2023/04/03 05:14:20;;;;;;;;;34.00;34.00;;;;;;;;5032714;29;8952;-76
2023/04/03 05:16:53;;;;;;;;;39.80;38.60;;;;;;;;5032466;29;8836;-76
2023/04/03 05:19:28;;;;;;;;;42.80;39.80;;;;;;;;5017280;29;8837;-76
2023/04/03 05:22:02;;;;;;;;;42.60;39.80;;;;;;;;5032439;29;8794;-77
2023/04/03 05:24:35;;;;;;;;;46.00;41.00;;;;;;;;5048004;29;8834;-76
2023/04/03 05:27:09;;;;;;;;;40.40;38.20;;;;;;;;5017362;29;8837;-76
2023/04/03 05:29:44;;;;;;;;;40.40;37.00;;;;;;;;5033098;29;8886;-76
2023/04/03 05:32:20;;;;;;;;;48.40;42.80;;;;;;;;5017880;29;8888;-76
2023/04/03 05:34:56;;;;;;;;;31.40;31.20;;;;;;;;5013536;29;8823;-77
2023/04/03 05:37:28;;;;;;;;;27.20;27.20;;;;;;;;5027267;29;8824;-76
2023/04/03 05:40:03;;;;;;;;;27.60;27.00;;;;;;;;5029429;29;8833;-77
2023/04/03 05:42:36;;;;;;;;;24.20;24.00;;;;;;;;5015770;29;8801;-77
2023/04/03 05:45:28;;;;;;;;;31.20;30.40;;;;;;;;5033153;29;8942;-76
2023/04/03 05:48:00;;;;;;;;;20.80;20.80;;;;;;;;5031012;29;8896;-76
2023/04/03 05:50:34;;;;;;;;;29.20;28.60;;;;;;;;5065994;29;8827;-77
2023/04/03 05:53:27;;;;;;;;;31.60;30.40;;;;;;;;5045314;29;8805;-76
2023/04/03 05:56:04;;;;;;;;;34.00;31.20;;;;;;;;5002173;29;8872;-76
2023/04/03 05:58:40;;;;;;;;;35.80;34.80;;;;;;;;5026730;29;8920;-77
2023/04/03 06:01:13;;;;;;;;;52.60;44.00;;;;;;;;5014083;29;8913;-78
2023/04/03 06:03:46;;;;;;;;;55.80;46.60;;;;;;;;5000106;29;8904;-77
2023/04/03 06:06:19;;;;;;;;;55.40;47.00;;;;;;;;5015640;29;8824;-80
2023/04/03 06:08:52;;;;;;;;;53.80;46.20;;;;;;;;5014891;29;8858;-78
2023/04/03 06:11:43;;;;;;;;;41.20;38.40;;;;;;;;5016980;29;8862;-78
2023/04/03 06:14:15;;;;;;;;;28.80;27.60;;;;;;;;5014706;29;8842;-72
2023/04/03 06:16:47;;;;;;;;;31.00;30.40;;;;;;;;5030162;29;9680;-77
2023/04/03 06:19:19;;;;;;;;;35.00;33.40;;;;;;;;4998961;29;8851;-77
2023/04/03 06:21:56;;;;;;;;;20.20;20.20;;;;;;;;5015287;29;8884;-78
2023/04/03 06:24:30;;;;;;;;;25.80;22.80;;;;;;;;5014791;29;9624;-78
2023/04/03 06:27:02;;;;;;;;;24.40;23.80;;;;;;;;5014687;29;8931;-78
2023/04/03 06:29:35;;;;;;;;;18.20;18.20;;;;;;;;4999379;29;8808;-76
2023/04/03 06:32:07;;;;;;;;;18.00;15.00;;;;;;;;4999238;29;8820;-76
2023/04/03 06:34:40;;;;;;;;;16.60;16.60;;;;;;;;4999023;29;8824;-76
2023/04/03 06:37:22;;;;;;;;;15.20;15.20;;;;;;;;4998519;29;8824;-76
2023/04/03 06:39:54;;;;;;;;;14.80;14.80;;;;;;;;5014332;29;8820;-76
2023/04/03 06:42:26;;;;;;;;;17.60;17.60;;;;;;;;4999089;29;9607;-77
2023/04/03 06:45:06;;;;;;;;;25.80;25.80;;;;;;;;4984597;29;8858;-77
2023/04/03 06:47:38;;;;;;;;;29.40;29.20;;;;;;;;5013994;29;8845;-78
2023/04/03 06:50:29;;;;;;;;;32.20;31.40;;;;;;;;5016699;29;8817;-78
2023/04/03 06:53:02;;;;;;;;;16.20;16.20;;;;;;;;4998672;29;8848;-78
2023/04/03 06:55:34;;;;;;;;;21.00;21.00;;;;;;;;5018278;29;9679;-78
2023/04/03 06:58:06;;;;;;;;;18.40;18.00;;;;;;;;5058165;29;8865;-69
2023/04/03 07:00:37;;;;;;;;;11.80;11.80;;;;;;;;5047487;29;8798;-68
2023/04/03 07:03:26;;;;;;;;;18.40;17.80;;;;;;;;5044555;29;8816;-68
2023/04/03 07:05:57;;;;;;;;;20.50;20.50;;;;;;;;5045912;29;8813;-68
2023/04/03 07:08:28;;;;;;;;;18.80;18.60;;;;;;;;5056876;29;10853;-71
2023/04/03 07:10:59;;;;;;;;;12.75;12.75;;;;;;;;5034292;29;8806;-71
2023/04/03 07:13:31;;;;;;;;;14.75;14.25;;;;;;;;5049971;29;8861;-70
2023/04/03 07:16:20;;;;;;;;;13.50;13.50;;;;;;;;5066587;29;8916;-70
2023/04/03 07:18:51;;;;;;;;;13.75;13.75;;;;;;;;5034125;29;8829;-70
2023/04/03 07:21:41;;;;;;;;;9.50;9.50;;;;;;;;5067178;29;8849;-71
2023/04/03 07:24:31;;;;;;;;;8.25;8.25;;;;;;;;5050001;29;8858;-70
2023/04/03 07:27:02;;;;;;;;;10.00;10.00;;;;;;;;5049094;29;8836;-70
2023/04/03 07:29:34;;;;;;;;;11.00;11.00;;;;;;;;5049575;29;8941;-70
2023/04/03 07:32:06;;;;;;;;;8.75;8.75;;;;;;;;5049750;29;8822;-68
2023/04/03 07:34:37;;;;;;;;;8.25;8.25;;;;;;;;5050449;29;8810;-69
2023/04/03 07:37:08;;;;;;;;;12.00;12.00;;;;;;;;5034050;29;9560;-69
2023/04/03 07:39:39;;;;;;;;;12.25;12.25;;;;;;;;5066018;29;8797;-69
2023/04/03 07:42:29;;;;;;;;;7.00;7.00;;;;;;;;5051901;29;8825;-71
2023/04/03 07:45:00;;;;;;;;;23.20;22.60;;;;;;;;5065952;29;9624;-72
2023/04/03 07:47:31;;;;;;;;;82.00;58.80;;;;;;;;5049118;29;8814;-71
2023/04/03 07:50:03;;;;;;;;;21.80;21.80;;;;;;;;5048733;29;8809;-70
2023/04/03 07:52:34;;;;;;;;;10.25;10.25;;;;;;;;5049883;29;8809;-70
2023/04/03 07:55:05;;;;;;;;;15.50;14.50;;;;;;;;5033638;29;8868;-70
2023/04/03 07:57:37;;;;;;;;;12.50;12.25;;;;;;;;5018479;29;8824;-72
2023/04/03 08:00:08;;;;;;;;;13.00;13.00;;;;;;;;5028792;29;8828;-69
2023/04/03 08:02:50;;;;;;;;;43.20;36.80;;;;;;;;5037240;29;9590;-70
2023/04/03 08:05:21;;;;;;;;;14.60;14.60;;;;;;;;5056728;29;8845;-73
2023/04/03 08:07:52;;;;;;;;;17.80;17.80;;;;;;;;5044185;29;9760;-73
2023/04/03 08:10:23;;;;;;;;;15.00;15.00;;;;;;;;5048102;29;8956;-70
2023/04/03 08:12:54;;;;;;;;;14.67;14.67;;;;;;;;5065166;29;10238;-71
2023/04/03 08:15:25;;;;;;;;;7.67;7.67;;;;;;;;5049598;29;8913;-69
2023/04/03 08:17:56;;;;;;;;;26.00;21.20;;;;;;;;5064742;29;8860;-70
2023/04/03 08:20:27;;;;;;;;;21.67;21.67;;;;;;;;5018023;29;8825;-70
2023/04/03 08:22:58;;;;;;;;;14.50;14.50;;;;;;;;5063368;29;8842;-70
2023/04/03 08:25:29;;;;;;;;;16.00;15.67;;;;;;;;5045638;29;8817;-70
2023/04/03 08:28:01;;;;;;;;;10.50;10.50;;;;;;;;5063933;29;8881;-70
2023/04/03 08:30:33;;;;;;;;;12.25;12.25;;;;;;;;5064952;29;8834;-67
2023/04/03 08:33:03;;;;;;;;;8.25;8.25;;;;;;;;5065257;29;9443;-70
2023/04/03 08:35:38;;;;;;;;;9.00;9.00;;;;;;;;5033193;29;8836;-70
2023/04/03 08:38:10;;;;;;;;;9.75;9.50;;;;;;;;5065724;29;9549;-70
2023/04/03 08:40:41;;;;;;;;;5.25;5.25;;;;;;;;5065152;29;8962;-70
2023/04/03 08:43:30;;;;;;;;;24.00;23.25;;;;;;;;5063657;29;8852;-70
2023/04/03 08:46:05;;;;;;;;;10.00;10.00;;;;;;;;5055182;29;8853;-70
2023/04/03 08:48:40;;;;;;;;;0.00;0.00;;;;;;;;5034687;29;8864;-68
2023/04/03 08:51:16;;;;;;;;;9.50;9.50;;;;;;;;5048613;29;8861;-68
2023/04/03 08:54:08;;;;;;;;;9.00;9.00;;;;;;;;5065065;29;8845;-70
2023/04/03 08:56:40;;;;;;;;;8.00;8.00;;;;;;;;5064858;29;8837;-69
2023/04/03 08:59:14;;;;;;;;;7.75;7.75;;;;;;;;5064493;29;9602;-69
2023/04/03 09:01:45;;;;;;;;;9.25;9.25;;;;;;;;5046689;29;9545;-69
2023/04/03 09:04:16;;;;;;;;;12.00;12.00;;;;;;;;5047851;29;8814;-66
2023/04/03 09:06:54;;;;;;;;;8.75;8.50;;;;;;;;5064778;29;8829;-66
2023/04/03 09:09:32;;;;;;;;;7.25;7.25;;;;;;;;5064846;29;8828;-67
2023/04/03 09:12:26;;;;;;;;;3.75;3.75;;;;;;;;5037735;29;8872;-68
2023/04/03 09:14:57;;;;;;;;;13.50;13.50;;;;;;;;5064470;29;8802;-68
2023/04/03 09:17:43;;;;;;;;;17.00;17.00;;;;;;;;5063824;29;8868;-68
2023/04/03 09:20:18;;;;;;;;;9.50;9.50;;;;;;;;5045819;29;8821;-68
2023/04/03 09:22:50;;;;;;;;;9.75;9.75;;;;;;;;5063123;29;8794;-67
2023/04/03 09:25:21;;;;;;;;;10.00;10.00;;;;;;;;5047855;29;8951;-68
2023/04/03 09:27:52;;;;;;;;;10.75;10.75;;;;;;;;5047524;29;8853;-68
2023/04/03 09:30:24;;;;;;;;;9.00;9.00;;;;;;;;5048212;29;8904;-68
2023/04/03 09:32:56;;;;;;;;;9.75;9.75;;;;;;;;5064241;29;8809;-70
2023/04/03 09:35:31;;;;;;;;;12.75;12.25;;;;;;;;5032983;29;8829;-70
2023/04/03 09:38:15;;;;;;;;;10.00;10.00;;;;;;;;5068345;29;8782;-69
2023/04/03 09:41:07;;;;;;;;;10.50;10.50;;;;;;;;5068628;29;8995;-69
2023/04/03 09:43:56;;;;;;;;;9.50;9.50;;;;;;;;5062274;29;9640;-72
2023/04/03 09:46:30;;;;;;;;;12.33;12.33;;;;;;;;5066474;29;8972;-72
2023/04/03 09:49:03;;;;;;;;;9.50;9.50;;;;;;;;5058193;29;8938;-71
2023/04/03 09:51:34;;;;;;;;;7.25;7.25;;;;;;;;5069812;29;8803;-71
2023/04/03 09:54:26;;;;;;;;;9.50;9.50;;;;;;;;5066412;29;8796;-71
2023/04/03 09:57:00;;;;;;;;;11.00;11.00;;;;;;;;5050215;29;8852;-71
2023/04/03 09:59:32;;;;;;;;;7.75;7.75;;;;;;;;5068120;29;8782;-71
2023/04/03 10:02:13;;;;;;;;;11.00;11.00;;;;;;;;5051198;29;8790;-68
2023/04/03 10:04:44;;;;;;;;;7.75;7.75;;;;;;;;5050774;29;8798;-70
2023/04/03 10:07:38;;;;;;;;;7.00;7.00;;;;;;;;5035305;29;8826;-70
2023/04/03 10:10:17;;;;;;;;;9.75;9.75;;;;;;;;5059778;29;11504;-69
2023/04/03 10:12:49;;;;;;;;;9.25;9.25;;;;;;;;5051290;29;9597;-70
2023/04/03 10:15:19;;;;;;;;;10.00;10.00;;;;;;;;5049630;29;9529;-70
2023/04/03 10:18:21;;;;;;;;;7.00;7.00;;;;;;;;5067479;29;8869;-69
2023/04/03 10:20:53;;;;;;;;;25.75;25.00;;;;;;;;5035834;29;8810;-69
2023/04/03 10:23:31;;;;;;;;;10.00;9.75;;;;;;;;5050851;29;8797;-69
2023/04/03 10:26:23;;;;;;;;;7.75;7.75;;;;;;;;5067581;29;8802;-69
2023/04/03 10:28:54;;;;;;;;;8.00;7.75;;;;;;;;5067522;29;9633;-69
2023/04/03 10:31:34;;;;;;;;;7.00;7.00;;;;;;;;5050965;29;8786;-69
2023/04/03 10:34:06;;;;;;;;;10.00;10.00;;;;;;;;5035560;29;8774;-69
2023/04/03 10:36:37;;;;;;;;;23.75;23.00;;;;;;;;5050404;29;8936;-69
2023/04/03 10:39:20;;;;;;;;;14.67;14.67;;;;;;;;5067597;29;9029;-69
2023/04/03 10:41:51;;;;;;;;;4.00;4.00;;;;;;;;5067340;29;11624;-70
2023/04/03 10:44:22;;;;;;;;;7.00;7.00;;;;;;;;5067186;29;8928;-67
2023/04/03 10:47:00;;;;;;;;;7.75;7.75;;;;;;;;5046803;29;8802;-71
2023/04/03 10:49:34;;;;;;;;;8.75;8.75;;;;;;;;5052028;29;8908;-70
2023/04/03 10:52:20;;;;;;;;;8.00;8.00;;;;;;;;5050551;29;8834;-70
2023/04/03 10:54:58;;;;;;;;;4.75;4.75;;;;;;;;5065991;29;8841;-69
2023/04/03 10:57:30;;;;;;;;;5.75;5.75;;;;;;;;5066704;29;9578;-70
2023/04/03 11:00:21;;;;;;;;;3.25;3.25;;;;;;;;5066112;29;8801;-67
2023/04/03 11:02:52;;;;;;;;;6.50;6.50;;;;;;;;5065662;29;8790;-68
2023/04/03 11:05:23;;;;;;;;;5.00;5.00;;;;;;;;5066598;29;8889;-68
2023/04/03 11:07:56;;;;;;;;;5.00;5.00;;;;;;;;5066664;29;8806;-68
2023/04/03 11:10:46;;;;;;;;;3.00;3.00;;;;;;;;5049862;29;8951;-68
2023/04/03 11:13:22;;;;;;;;;5.50;5.25;;;;;;;;5066483;29;8814;-69
2023/04/03 11:15:57;;;;;;;;;1.75;1.75;;;;;;;;5050302;29;8833;-68
2023/04/03 11:18:52;;;;;;;;;6.00;6.00;;;;;;;;5050380;29;8801;-68
2023/04/03 11:21:26;;;;;;;;;5.25;5.25;;;;;;;;5034434;29;8906;-69
2023/04/03 11:24:01;;;;;;;;;5.00;5.00;;;;;;;;5033790;29;8834;-69
2023/04/03 11:26:36;;;;;;;;;4.50;4.50;;;;;;;;5018687;29;8813;-69
2023/04/03 11:29:31;;;;;;;;;4.50;4.50;;;;;;;;5066322;29;9578;-69
2023/04/03 11:32:20;;;;;;;;;4.25;4.25;;;;;;;;5066506;29;8821;-69
2023/04/03 11:34:56;;;;;;;;;5.00;5.00;;;;;;;;5049228;29;8880;-68
2023/04/03 11:37:47;;;;;;;;;6.00;5.25;;;;;;;;5066822;29;8874;-68
2023/04/03 11:40:24;;;;;;;;;4.00;4.00;;;;;;;;5049497;29;8821;-68
2023/04/03 11:43:26;;;;;;;;;8.00;8.00;;;;;;;;5051498;29;8838;-69
2023/04/03 11:46:04;;;;;;;;;4.75;4.75;;;;;;;;5049854;29;8794;-69
2023/04/03 11:48:35;;;;;;;;;10.00;10.00;;;;;;;;5070646;29;8854;-70
2023/04/03 11:51:12;;;;;;;;;9.33;9.00;;;;;;;;5051298;29;8814;-68
2023/04/03 11:53:43;;;;;;;;;6.25;6.25;;;;;;;;5048917;29;8827;-67
2023/04/03 11:56:20;;;;;;;;;11.25;10.50;;;;;;;;5065900;29;8889;-68
2023/04/03 11:59:09;;;;;;;;;7.75;7.75;;;;;;;;5033655;29;8802;-68
2023/04/03 12:01:45;;;;;;;;;10.75;10.75;;;;;;;;5049122;29;8801;-68
2023/04/03 12:04:17;;;;;;;;;10.75;10.75;;;;;;;;5049056;29;8813;-68
2023/04/03 12:06:48;;;;;;;;;14.25;14.25;;;;;;;;5048755;29;8840;-68
2023/04/03 12:09:27;;;;;;;;;7.75;7.75;;;;;;;;5063961;29;9550;-69
2023/04/03 12:12:00;;;;;;;;;6.00;6.00;;;;;;;;5047684;29;8832;-69
2023/04/03 12:14:32;;;;;;;;;6.75;6.75;;;;;;;;5048493;29;8848;-69
2023/04/03 12:17:24;;;;;;;;;7.75;7.75;;;;;;;;5048992;29;8952;-69
2023/04/03 12:19:55;;;;;;;;;11.50;11.50;;;;;;;;5049022;29;9009;-69
2023/04/03 12:22:26;;;;;;;;;1.33;1.33;;;;;;;;5033660;29;8904;-68
2023/04/03 12:24:57;;;;;;;;;5.50;5.50;;;;;;;;5064364;29;10441;-68
2023/04/03 12:27:29;;;;;;;;;11.00;11.00;;;;;;;;5063843;29;8826;-67
2023/04/03 12:30:03;;;;;;;;;6.25;6.25;;;;;;;;5048022;29;8848;-69
2023/04/03 12:32:36;;;;;;;;;5.25;5.25;;;;;;;;5035423;29;8800;-70
2023/04/03 12:35:26;;;;;;;;;4.75;4.75;;;;;;;;5041089;29;8806;-70
2023/04/03 12:38:15;;;;;;;;;3.00;3.00;;;;;;;;5038831;29;8932;-69
2023/04/03 12:41:05;;;;;;;;;3.75;3.75;;;;;;;;5064789;29;8809;-69
2023/04/03 12:43:35;;;;;;;;;10.00;10.00;;;;;;;;5065028;29;8804;-71
2023/04/03 12:46:06;;;;;;;;;5.00;5.00;;;;;;;;5065025;29;8810;-70
2023/04/03 12:48:50;;;;;;;;;37.33;33.33;;;;;;;;5032876;29;11443;-69
2023/04/03 12:51:25;;;;;;;;;10.00;10.00;;;;;;;;5048598;29;9489;-70
2023/04/03 12:54:05;;;;;;;;;5.00;5.00;;;;;;;;5048028;29;8782;-70
2023/04/03 12:56:36;;;;;;;;;5.75;5.75;;;;;;;;5047966;29;8802;-68
2023/04/03 12:59:16;;;;;;;;;4.00;4.00;;;;;;;;5064453;29;8813;-69
2023/04/03 13:02:26;;;;;;;;;9.75;8.75;;;;;;;;5064780;29;8813;-71
2023/04/03 13:04:59;;;;;;;;;5.50;5.50;;;;;;;;5032618;29;8806;-70
2023/04/03 13:07:33;;;;;;;;;4.00;4.00;;;;;;;;5064549;29;8817;-68
2023/04/03 13:10:14;;;;;;;;;9.75;9.75;;;;;;;;5064083;29;8794;-68
2023/04/03 13:12:47;;;;;;;;;5.25;5.25;;;;;;;;5050927;29;8793;-68
2023/04/03 13:15:25;;;;;;;;;5.00;5.00;;;;;;;;5050786;29;8824;-68
2023/04/03 13:17:56;;;;;;;;;6.75;6.75;;;;;;;;5067893;29;8806;-68
2023/04/03 13:20:29;;;;;;;;;5.25;5.25;;;;;;;;5067842;29;8793;-68
2023/04/03 13:23:05;;;;;;;;;18.75;17.50;;;;;;;;5067694;29;8790;-68
2023/04/03 13:25:40;;;;;;;;;18.50;18.00;;;;;;;;5067673;29;8851;-69
2023/04/03 13:28:16;;;;;;;;;14.75;14.75;;;;;;;;5054763;29;8830;-70
2023/04/03 13:31:10;;;;;;;;;9.00;9.00;;;;;;;;5066992;29;8933;-69
2023/04/03 13:34:03;;;;;;;;;11.75;11.75;;;;;;;;5034546;29;8784;-69
2023/04/03 13:36:44;;;;;;;;;9.75;9.75;;;;;;;;5046749;29;8785;-69
2023/04/03 13:39:36;;;;;;;;;10.00;10.00;;;;;;;;5048019;29;8796;-69
2023/04/03 13:42:21;;;;;;;;;7.75;7.75;;;;;;;;5047443;29;8816;-69
2023/04/03 13:45:28;;;;;;;;;8.75;8.75;;;;;;;;5054628;29;8913;-69
2023/04/03 13:48:10;;;;;;;;;4.50;4.50;;;;;;;;4979081;29;8856;-70
2023/04/03 13:50:56;;;;;;;;;4.25;4.25;;;;;;;;5059991;29;8880;-70
2023/04/03 13:53:29;;;;;;;;;4.00;4.00;;;;;;;;5066920;29;8786;-70
2023/04/03 13:56:05;;;;;;;;;6.67;5.67;;;;;;;;4996512;29;1599175;-70
2023/04/03 13:59:00;;;;;;;;;12.00;12.00;;;;;;;;5034831;29;8800;-69
2023/04/03 14:01:41;;;;;;;;;6.75;6.75;;;;;;;;5060165;29;8805;-69
2023/04/03 14:04:33;;;;;;;;;5.75;5.75;;;;;;;;5051078;29;8805;-69
2023/04/03 14:07:23;;;;;;;;;4.25;4.25;;;;;;;;5053996;29;8786;-69
2023/04/03 14:09:54;;;;;;;;;8.00;8.00;;;;;;;;5067379;29;9501;-68
2023/04/03 14:12:33;;;;;;;;;6.75;6.75;;;;;;;;5067589;29;8810;-69
2023/04/03 14:15:08;;;;;;;;;8.50;8.50;;;;;;;;5051204;29;8798;-69
2023/04/03 14:17:39;;;;;;;;;10.25;8.50;;;;;;;;5051051;29;8814;-68
2023/04/03 14:20:14;;;;;;;;;16.50;16.50;;;;;;;;5051229;29;8806;-68
2023/04/03 14:23:03;;;;;;;;;8.50;8.50;;;;;;;;5050096;29;8829;-68
2023/04/03 14:25:34;;;;;;;;;21.67;21.67;;;;;;;;5050141;29;8826;-69
2023/04/03 14:28:17;;;;;;;;;9.00;9.00;;;;;;;;5056244;29;8857;-68
2023/04/03 14:30:49;;;;;;;;;13.25;12.50;;;;;;;;5051231;29;10243;-68
2023/04/03 14:33:21;;;;;;;;;7.50;7.50;;;;;;;;5067584;29;8877;-69
2023/04/03 14:35:52;;;;;;;;;24.25;23.50;;;;;;;;5067321;29;8822;-69
2023/04/03 14:38:23;;;;;;;;;23.25;19.75;;;;;;;;5067438;29;8833;-69
2023/04/03 14:40:54;;;;;;;;;25.25;24.75;;;;;;;;5065083;29;8806;-69
2023/04/03 14:43:26;;;;;;;;;28.80;27.60;;;;;;;;5064747;29;8806;-69
2023/04/03 14:45:57;;;;;;;;;12.25;11.75;;;;;;;;5055288;29;9627;-69
2023/04/03 14:48:29;;;;;;;;;19.25;19.00;;;;;;;;5061912;29;8846;-69
2023/04/03 14:51:00;;;;;;;;;17.75;17.00;;;;;;;;5065452;29;8801;-68
2023/04/03 14:53:32;;;;;;;;;11.00;11.00;;;;;;;;5048947;29;8845;-69
2023/04/03 14:56:05;;;;;;;;;24.50;22.25;;;;;;;;5048163;29;8865;-69
2023/04/03 14:58:56;;;;;;;;;19.50;16.50;;;;;;;;5047691;29;8818;-69
2023/04/03 15:01:27;;;;;;;;;21.40;21.40;;;;;;;;5029446;29;9554;-68
2023/04/03 15:03:58;;;;;;;;;21.75;21.75;;;;;;;;5046105;29;8861;-69
2023/04/03 15:06:29;;;;;;;;;10.33;9.67;;;;;;;;5054543;29;8886;-69
2023/04/03 15:09:00;;;;;;;;;6.25;6.25;;;;;;;;5062688;29;8952;-69
2023/04/03 15:11:31;;;;;;;;;5.00;5.00;;;;;;;;5048167;29;8984;-70
2023/04/03 15:14:01;;;;;;;;;8.00;8.00;;;;;;;;5065511;29;8852;-68
2023/04/03 15:16:32;;;;;;;;;7.75;7.75;;;;;;;;5064971;29;8818;-70
2023/04/03 15:19:03;;;;;;;;;13.00;13.00;;;;;;;;5032469;29;8806;-70
2023/04/03 15:21:34;;;;;;;;;15.67;14.00;;;;;;;;5017191;29;12179;-71
2023/04/03 15:24:06;;;;;;;;;12.00;12.00;;;;;;;;5047852;29;8932;-69
2023/04/03 15:26:37;;;;;;;;;9.75;9.50;;;;;;;;5051365;29;8830;-69
2023/04/03 15:29:08;;;;;;;;;8.00;8.00;;;;;;;;5047510;29;9565;-69